sensor_id;sensor_type;location;lat;lon;timestamp;pressure;altitude;pressure_sealevel;temperature;humidity
74529;BME280;63009;52.584;5.932;2023-04-01T00:00:21;99047.94;;;9.23;100.00
74529;BME280;63009;52.584;5.932;2023-04-01T00:02:47;99048.66;;;9.26;100.00
74529;BME280;63009;52.584;5.932;2023-04-01T00:05:13;99058.00;;;9.30;100.00
74529;BME280;63009;52.584;5.932;2023-04-01T00:07:39;99053.56;;;9.30;100.00
74529;BME280;63009;52.584;5.932;2023-04-01T00:10:06;99056.91;;;9.32;100.00
74529;BME280;63009;52.584;5.932;2023-04-01T00:12:32;99055.13;;;9.21;100.00
74529;BME280;63009;52.584;5.932;2023-04-01T00:14:58;99062.19;;;9.32;100.00
74529;BME280;63009;52.584;5.932;2023-04-01T00:17:23;99067.78;;;9.39;100.00
74529;BME280;63009;52.584;5.932;2023-04-01T00:19:48;99065.53;;;9.34;100.00
74529;BME280;63009;52.584;5.932;2023-04-01T00:22:14;99077.03;;;9.33;100.00
74529;BME280;63009;52.584;5.932;2023-04-01T00:24:39;99069.00;;;9.35;100.00
74529;BME280;63009;52.584;5.932;2023-04-01T00:27:05;99068.03;;;9.36;100.00
74529;BME280;63009;52.584;5.932;2023-04-01T00:29:30;99059.69;;;9.31;100.00
74529;BME280;63009;52.584;5.932;2023-04-01T00:31:57;99070.81;;;9.34;100.00
74529;BME280;63009;52.584;5.932;2023-04-01T00:34:23;99065.91;;;9.30;100.00
74529;BME280;63009;52.584;5.932;2023-04-01T00:36:49;99072.84;;;9.31;100.00
74529;BME280;63009;52.584;5.932;2023-04-01T00:39:15;99072.72;;;9.32;100.00
74529;BME280;63009;52.584;5.932;2023-04-01T00:41:40;99069.38;;;9.30;100.00
74529;BME280;63009;52.584;5.932;2023-04-01T00:44:36;99067.31;;;9.34;100.00
74529;BME280;63009;52.584;5.932;2023-04-01T00:47:02;99079.66;;;9.33;100.00
74529;BME280;63009;52.584;5.932;2023-04-01T00:49:33;99070.53;;;9.37;100.00
74529;BME280;63009;52.584;5.932;2023-04-01T00:52:01;99073.44;;;9.34;100.00
74529;BME280;63009;52.584;5.932;2023-04-01T00:54:29;99072.47;;;9.35;100.00
74529;BME280;63009;52.584;5.932;2023-04-01T00:57:12;99076.91;;;9.35;100.00
74529;BME280;63009;52.584;5.932;2023-04-01T00:59:46;99074.28;;;9.35;100.00
74529;BME280;63009;52.584;5.932;2023-04-01T01:02:14;99070.22;;;9.31;100.00
74529;BME280;63009;52.584;5.932;2023-04-01T01:04:40;99081.59;;;9.31;100.00
74529;BME280;63009;52.584;5.932;2023-04-01T01:10:02;99075.22;;;9.34;100.00
74529;BME280;63009;52.584;5.932;2023-04-01T01:12:44;99074.53;;;9.32;100.00
74529;BME280;63009;52.584;5.932;2023-04-01T01:24:14;99077.88;;;9.34;100.00
74529;BME280;63009;52.584;5.932;2023-04-01T01:29:42;99096.78;;;9.39;100.00
74529;BME280;63009;52.584;5.932;2023-04-01T01:32:24;99093.44;;;9.37;100.00
74529;BME280;63009;52.584;5.932;2023-04-01T01:37:28;99091.75;;;9.36;100.00
74529;BME280;63009;52.584;5.932;2023-04-01T01:40:02;99076.56;;;9.28;100.00
74529;BME280;63009;52.584;5.932;2023-04-01T01:42:30;99089.13;;;9.36;100.00
74529;BME280;63009;52.584;5.932;2023-04-01T01:44:57;99090.47;;;9.30;100.00
74529;BME280;63009;52.584;5.932;2023-04-01T01:47:24;99091.06;;;9.34;100.00
74529;BME280;63009;52.584;5.932;2023-04-01T01:49:51;99089.03;;;9.26;100.00
74529;BME280;63009;52.584;5.932;2023-04-01T01:52:18;99089.84;;;9.27;100.00
74529;BME280;63009;52.584;5.932;2023-04-01T01:54:51;99090.94;;;9.24;100.00
74529;BME280;63009;52.584;5.932;2023-04-01T01:57:19;99089.84;;;9.27;100.00
74529;BME280;63009;52.584;5.932;2023-04-01T01:59:47;99100.06;;;9.31;100.00
74529;BME280;63009;52.584;5.932;2023-04-01T02:02:14;99104.38;;;9.32;100.00
74529;BME280;63009;52.584;5.932;2023-04-01T02:04:43;99100.28;;;9.28;100.00
74529;BME280;63009;52.584;5.932;2023-04-01T02:07:18;99109.50;;;9.34;100.00
74529;BME280;63009;52.584;5.932;2023-04-01T02:09:45;99114.66;;;9.35;100.00
74529;BME280;63009;52.584;5.932;2023-04-01T02:12:12;99113.56;;;9.38;100.00
74529;BME280;63009;52.584;5.932;2023-04-01T02:14:59;99122.44;;;9.37;100.00
74529;BME280;63009;52.584;5.932;2023-04-01T02:17:27;99119.09;;;9.35;100.00
74529;BME280;63009;52.584;5.932;2023-04-01T02:20:11;99119.47;;;9.30;100.00
74529;BME280;63009;52.584;5.932;2023-04-01T02:22:40;99118.38;;;9.33;100.00
74529;BME280;63009;52.584;5.932;2023-04-01T02:25:14;99122.94;;;9.31;100.00
74529;BME280;63009;52.584;5.932;2023-04-01T02:27:41;99118.72;;;9.28;100.00
74529;BME280;63009;52.584;5.932;2023-04-01T02:30:08;99126.75;;;9.27;100.00
74529;BME280;63009;52.584;5.932;2023-04-01T02:32:35;99131.81;;;9.30;100.00
74529;BME280;63009;52.584;5.932;2023-04-01T02:35:04;99126.31;;;9.21;100.00
74529;BME280;63009;52.584;5.932;2023-04-01T02:37:31;99133.50;;;9.31;100.00
74529;BME280;63009;52.584;5.932;2023-04-01T02:40:06;99130.50;;;9.24;100.00
74529;BME280;63009;52.584;5.932;2023-04-01T02:42:33;99131.31;;;9.25;100.00
74529;BME280;63009;52.584;5.932;2023-04-01T02:44:58;99137.66;;;9.33;100.00
74529;BME280;63009;52.584;5.932;2023-04-01T02:47:23;99105.00;;;9.13;100.00
74529;BME280;63009;52.584;5.932;2023-04-01T02:49:49;99139.59;;;9.31;100.00
74529;BME280;63009;52.584;5.932;2023-04-01T02:52:14;99146.53;;;9.32;100.00
74529;BME280;63009;52.584;5.932;2023-04-01T02:54:39;99137.66;;;9.33;100.00
74529;BME280;63009;52.584;5.932;2023-04-01T02:57:05;99142.34;;;9.30;100.00
74529;BME280;63009;52.584;5.932;2023-04-01T02:59:30;99147.13;;;9.36;100.00
74529;BME280;63009;52.584;5.932;2023-04-01T03:01:56;99154.19;;;9.35;100.00
74529;BME280;63009;52.584;5.932;2023-04-01T03:04:21;99150.97;;;9.32;100.00
74529;BME280;63009;52.584;5.932;2023-04-01T03:06:46;99158.19;;;9.30;100.00
74529;BME280;63009;52.584;5.932;2023-04-01T03:09:11;99161.75;;;9.29;100.00
74529;BME280;63009;52.584;5.932;2023-04-01T03:11:37;99148.09;;;9.23;100.00
74529;BME280;63009;52.584;5.932;2023-04-01T03:14:02;99136.16;;;9.08;100.00
74529;BME280;63009;52.584;5.932;2023-04-01T03:16:27;99157.56;;;9.26;100.00
74529;BME280;63009;52.584;5.932;2023-04-01T03:18:53;99158.66;;;9.23;100.00
74529;BME280;63009;52.584;5.932;2023-04-01T03:21:22;99163.91;;;9.23;100.00
74529;BME280;63009;52.584;5.932;2023-04-01T03:23:47;99168.34;;;9.23;100.00
74529;BME280;63009;52.584;5.932;2023-04-01T03:26:13;99163.34;;;9.20;100.00
74529;BME280;63009;52.584;5.932;2023-04-01T03:28:39;99174.34;;;9.25;100.00
74529;BME280;63009;52.584;5.932;2023-04-01T03:31:04;99175.44;;;9.22;100.00
74529;BME280;63009;52.584;5.932;2023-04-01T03:33:31;99188.59;;;9.22;100.00
74529;BME280;63009;52.584;5.932;2023-04-01T03:35:56;99178.06;;;9.22;100.00
74529;BME280;63009;52.584;5.932;2023-04-01T03:38:21;99182.03;;;9.17;100.00
74529;BME280;63009;52.584;5.932;2023-04-01T03:40:47;99178.69;;;9.15;100.00
74529;BME280;63009;52.584;5.932;2023-04-01T03:43:12;99185.97;;;9.22;100.00
74529;BME280;63009;52.584;5.932;2023-04-01T03:45:48;99194.59;;;9.25;100.00
74529;BME280;63009;52.584;5.932;2023-04-01T03:48:14;99181.66;;;9.21;100.00
74529;BME280;63009;52.584;5.932;2023-04-01T03:50:39;99178.91;;;9.12;100.00
74529;BME280;63009;52.584;5.932;2023-04-01T03:53:05;99195.09;;;9.18;100.00
74529;BME280;63009;52.584;5.932;2023-04-01T03:55:30;99205.38;;;9.21;100.00
74529;BME280;63009;52.584;5.932;2023-04-01T03:57:56;99208.03;;;9.21;100.00
74529;BME280;63009;52.584;5.932;2023-04-01T04:00:21;99208.97;;;9.20;100.00
74529;BME280;63009;52.584;5.932;2023-04-01T04:02:46;99205.63;;;9.18;100.00
74529;BME280;63009;52.584;5.932;2023-04-01T04:05:12;99214.25;;;9.20;100.00
74529;BME280;63009;52.584;5.932;2023-04-01T04:07:38;99209.81;;;9.21;100.00
74529;BME280;63009;52.584;5.932;2023-04-01T04:10:04;99207.44;;;9.18;100.00
74529;BME280;63009;52.584;5.932;2023-04-01T04:12:30;99222.16;;;9.20;100.00
74529;BME280;63009;52.584;5.932;2023-04-01T04:14:55;99224.78;;;9.20;100.00
74529;BME280;63009;52.584;5.932;2023-04-01T04:17:21;99206.94;;;9.13;100.00
74529;BME280;63009;52.584;5.932;2023-04-01T04:19:46;99222.28;;;9.19;100.00
74529;BME280;63009;52.584;5.932;2023-04-01T04:22:11;99222.41;;;9.17;100.00
74529;BME280;63009;52.584;5.932;2023-04-01T04:24:37;99228.53;;;9.18;100.00
74529;BME280;63009;52.584;5.932;2023-04-01T04:27:02;99229.47;;;9.17;100.00
74529;BME280;63009;52.584;5.932;2023-04-01T04:29:28;99226.97;;;9.15;100.00
74529;BME280;63009;52.584;5.932;2023-04-01T04:31:53;99240.84;;;9.17;100.00
74529;BME280;63009;52.584;5.932;2023-04-01T04:34:19;99233.16;;;9.14;100.00
74529;BME280;63009;52.584;5.932;2023-04-01T04:36:44;99232.31;;;9.14;100.00
74529;BME280;63009;52.584;5.932;2023-04-01T04:39:10;99240.22;;;9.14;100.00
74529;BME280;63009;52.584;5.932;2023-04-01T04:41:37;99240.34;;;9.12;100.00
74529;BME280;63009;52.584;5.932;2023-04-01T04:44:02;99244.47;;;9.16;100.00
74529;BME280;63009;52.584;5.932;2023-04-01T04:46:27;99244.66;;;9.13;100.00
74529;BME280;63009;52.584;5.932;2023-04-01T04:48:53;99245.88;;;9.09;100.00
74529;BME280;63009;52.584;5.932;2023-04-01T04:51:19;99260.16;;;9.18;100.00
74529;BME280;63009;52.584;5.932;2023-04-01T04:53:45;99237.38;;;9.06;100.00
74529;BME280;63009;52.584;5.932;2023-04-01T04:56:11;99254.38;;;9.13;100.00
74529;BME280;63009;52.584;5.932;2023-04-01T04:58:37;99261.44;;;9.12;100.00
74529;BME280;63009;52.584;5.932;2023-04-01T05:01:10;99270.94;;;9.15;100.00
74529;BME280;63009;52.584;5.932;2023-04-01T05:03:36;99272.00;;;9.12;100.00
74529;BME280;63009;52.584;5.932;2023-04-01T05:06:02;99273.78;;;9.12;100.00
74529;BME280;63009;52.584;5.932;2023-04-01T05:08:27;99273.78;;;9.12;100.00
74529;BME280;63009;52.584;5.932;2023-04-01T05:10:52;99274.75;;;9.11;100.00
74529;BME280;63009;52.584;5.932;2023-04-01T05:13:17;99274.88;;;9.09;100.00
74529;BME280;63009;52.584;5.932;2023-04-01T05:15:43;99279.78;;;9.14;100.00
74529;BME280;63009;52.584;5.932;2023-04-01T05:18:08;99287.81;;;9.12;100.00
74529;BME280;63009;52.584;5.932;2023-04-01T05:20:33;99285.88;;;9.14;100.00
74529;BME280;63009;52.584;5.932;2023-04-01T05:22:59;99286.25;;;9.10;100.00
74529;BME280;63009;52.584;5.932;2023-04-01T05:25:25;99285.28;;;9.11;100.00
74529;BME280;63009;52.584;5.932;2023-04-01T05:27:50;99279.53;;;9.06;100.00
74529;BME280;63009;52.584;5.932;2023-04-01T05:30:15;99286.00;;;9.02;100.00
74529;BME280;63009;52.584;5.932;2023-04-01T05:32:41;99305.28;;;9.13;100.00
74529;BME280;63009;52.584;5.932;2023-04-01T05:35:06;99296.78;;;9.10;100.00
74529;BME280;63009;52.584;5.932;2023-04-01T05:37:34;99306.50;;;9.09;100.00
74529;BME280;63009;52.584;5.932;2023-04-01T05:39:59;99321.94;;;9.14;100.00
74529;BME280;63009;52.584;5.932;2023-04-01T05:42:25;99311.88;;;9.08;100.00
74529;BME280;63009;52.584;5.932;2023-04-01T05:44:50;99319.22;;;9.15;100.00
74529;BME280;63009;52.584;5.932;2023-04-01T05:47:15;99321.94;;;9.14;100.00
74529;BME280;63009;52.584;5.932;2023-04-01T05:49:40;99331.44;;;9.16;100.00
74529;BME280;63009;52.584;5.932;2023-04-01T05:52:06;99325.31;;;9.16;100.00
74529;BME280;63009;52.584;5.932;2023-04-01T05:54:31;99331.31;;;9.18;100.00
74529;BME280;63009;52.584;5.932;2023-04-01T05:56:56;99334.19;;;9.15;100.00
74529;BME280;63009;52.584;5.932;2023-04-01T05:59:22;99334.53;;;9.21;100.00
74529;BME280;63009;52.584;5.932;2023-04-01T06:01:47;99337.06;;;9.23;100.00
74529;BME280;63009;52.584;5.932;2023-04-01T06:04:14;99335.50;;;9.20;100.00
74529;BME280;63009;52.584;5.932;2023-04-01T06:06:40;99338.97;;;9.21;100.00
74529;BME280;63009;52.584;5.932;2023-04-01T06:09:27;99348.00;;;9.30;100.00
74529;BME280;63009;52.584;5.932;2023-04-01T06:12:22;99356.50;;;9.33;100.00
74529;BME280;63009;52.584;5.932;2023-04-01T06:17:49;99359.47;;;9.40;100.00
74529;BME280;63009;52.584;5.932;2023-04-01T06:20:33;99369.22;;;9.50;100.00
74529;BME280;63009;52.584;5.932;2023-04-01T06:23:23;99357.94;;;9.48;100.00
74529;BME280;63009;52.584;5.932;2023-04-01T06:25:57;99377.50;;;9.57;100.00
74529;BME280;63009;52.584;5.932;2023-04-01T06:31:25;99391.41;;;9.59;100.00
74529;BME280;63009;52.584;5.932;2023-04-01T06:34:38;99380.03;;;9.59;100.00
74529;BME280;63009;52.584;5.932;2023-04-01T06:37:28;99393.44;;;9.67;100.00
74529;BME280;63009;52.584;5.932;2023-04-01T06:43:02;99395.75;;;9.71;100.00
74529;BME280;63009;52.584;5.932;2023-04-01T06:46:00;99405.41;;;9.71;100.00
74529;BME280;63009;52.584;5.932;2023-04-01T06:48:35;99405.31;;;9.83;100.00
74529;BME280;63009;52.584;5.932;2023-04-01T06:56:15;99419.13;;;9.87;100.00
74529;BME280;63009;52.584;5.932;2023-04-01T06:58:46;99421.25;;;9.93;100.00
74529;BME280;63009;52.584;5.932;2023-04-01T07:01:22;99417.19;;;9.89;100.00
74529;BME280;63009;52.584;5.932;2023-04-01T07:06:35;99420.31;;;9.94;100.00
74529;BME280;63009;52.584;5.932;2023-04-01T07:09:06;99429.31;;;9.92;100.00
74529;BME280;63009;52.584;5.932;2023-04-01T07:11:35;99438.44;;;9.88;100.00
74529;BME280;63009;52.584;5.932;2023-04-01T07:16:43;99448.50;;;9.94;100.00
74529;BME280;63009;52.584;5.932;2023-04-01T07:19:18;99449.34;;;9.94;100.00
74529;BME280;63009;52.584;5.932;2023-04-01T07:21:49;99463.50;;;9.93;100.00
74529;BME280;63009;52.584;5.932;2023-04-01T07:24:37;99456.78;;;9.89;100.00
74529;BME280;63009;52.584;5.932;2023-04-01T07:27:08;99448.00;;;9.77;100.00
74529;BME280;63009;52.584;5.932;2023-04-01T07:29:34;99473.34;;;9.91;100.00
74529;BME280;63009;52.584;5.932;2023-04-01T07:34:35;99471.41;;;9.82;100.00
74529;BME280;63009;52.584;5.932;2023-04-01T07:50:59;99506.94;;;10.00;100.00
74529;BME280;63009;52.584;5.932;2023-04-01T07:56:10;99509.34;;;10.03;100.00
74529;BME280;63009;52.584;5.932;2023-04-01T08:01:35;99522.75;;;10.11;100.00
74529;BME280;63009;52.584;5.932;2023-04-01T08:06:54;99510.53;;;10.10;100.00
74529;BME280;63009;52.584;5.932;2023-04-01T08:09:35;99529.75;;;10.24;100.00
74529;BME280;63009;52.584;5.932;2023-04-01T08:15:18;99530.38;;;10.27;100.00
74529;BME280;63009;52.584;5.932;2023-04-01T08:18:08;99549.94;;;10.36;100.00
74529;BME280;63009;52.584;5.932;2023-04-01T08:20:44;99553.78;;;10.43;100.00
74529;BME280;63009;52.584;5.932;2023-04-01T08:23:18;99561.34;;;10.48;100.00
74529;BME280;63009;52.584;5.932;2023-04-01T08:25:52;99566.63;;;10.48;100.00
74529;BME280;63009;52.584;5.932;2023-04-01T08:28:21;99566.75;;;10.57;100.00
74529;BME280;63009;52.584;5.932;2023-04-01T08:33:27;99561.69;;;10.65;100.00
74529;BME280;63009;52.584;5.932;2023-04-01T08:38:31;99562.06;;;10.72;100.00
74529;BME280;63009;52.584;5.932;2023-04-01T08:41:05;99582.47;;;10.81;100.00
74529;BME280;63009;52.584;5.932;2023-04-01T08:43:50;99585.94;;;10.82;100.00
74529;BME280;63009;52.584;5.932;2023-04-01T08:46:46;99589.34;;;10.73;100.00
74529;BME280;63009;52.584;5.932;2023-04-01T08:52:27;99593.28;;;10.78;100.00
74529;BME280;63009;52.584;5.932;2023-04-01T08:55:22;99598.81;;;10.75;100.00
74529;BME280;63009;52.584;5.932;2023-04-01T09:01:09;99606.50;;;10.56;100.00
74529;BME280;63009;52.584;5.932;2023-04-01T09:06:33;99607.44;;;10.55;100.00
74529;BME280;63009;52.584;5.932;2023-04-01T09:09:37;99613.69;;;10.54;100.00
74529;BME280;63009;52.584;5.932;2023-04-01T09:12:25;99627.66;;;10.56;100.00
74529;BME280;63009;52.584;5.932;2023-04-01T09:17:49;99626.91;;;10.54;100.00
74529;BME280;63009;52.584;5.932;2023-04-01T09:28:50;99643.81;;;10.29;100.00
74529;BME280;63009;52.584;5.932;2023-04-01T09:34:30;99651.38;;;10.33;100.00
74529;BME280;63009;52.584;5.932;2023-04-01T09:39:51;99662.53;;;10.37;100.00
74529;BME280;63009;52.584;5.932;2023-04-01T09:42:27;99668.91;;;10.34;100.00
74529;BME280;63009;52.584;5.932;2023-04-01T09:45:01;99677.91;;;10.32;100.00
74529;BME280;63009;52.584;5.932;2023-04-01T09:47:56;99682.59;;;10.28;100.00
74529;BME280;63009;52.584;5.932;2023-04-01T09:53:14;99686.44;;;10.35;100.00
74529;BME280;63009;52.584;5.932;2023-04-01T10:06:55;99701.97;;;10.16;100.00
74529;BME280;63009;52.584;5.932;2023-04-01T10:09:50;99702.56;;;10.20;100.00
74529;BME280;63009;52.584;5.932;2023-04-01T10:24:42;99722.41;;;10.25;100.00
74529;BME280;63009;52.584;5.932;2023-04-01T10:27:53;99727.09;;;10.22;100.00
74529;BME280;63009;52.584;5.932;2023-04-01T11:12:56;99765.53;;;10.83;100.00
74529;BME280;63009;52.584;5.932;2023-04-01T11:24:08;99781.72;;;11.14;100.00
74529;BME280;63009;52.584;5.932;2023-04-01T11:32:49;99795.78;;;11.37;100.00
74529;BME280;63009;52.584;5.932;2023-04-01T11:38:19;99810.34;;;11.42;100.00
74529;BME280;63009;52.584;5.932;2023-04-01T11:44:07;99811.78;;;11.46;100.00
74529;BME280;63009;52.584;5.932;2023-04-01T11:46:51;99807.19;;;11.48;100.00
74529;BME280;63009;52.584;5.932;2023-04-01T11:49:35;99818.63;;;11.60;100.00
74529;BME280;63009;52.584;5.932;2023-04-01T11:52:47;99818.03;;;11.56;100.00
74529;BME280;63009;52.584;5.932;2023-04-01T11:55:24;99829.56;;;11.67;100.00
74529;BME280;63009;52.584;5.932;2023-04-01T11:58:18;99834.13;;;11.65;100.00
74529;BME280;63009;52.584;5.932;2023-04-01T12:00:57;99829.94;;;11.62;100.00
74529;BME280;63009;52.584;5.932;2023-04-01T12:09:12;99854.94;;;11.47;100.00
74529;BME280;63009;52.584;5.932;2023-04-01T12:11:59;99857.44;;;11.26;100.00
74529;BME280;63009;52.584;5.932;2023-04-01T12:17:50;99857.34;;;10.81;100.00
74529;BME280;63009;52.584;5.932;2023-04-01T12:20:30;99878.16;;;10.86;100.00
74529;BME280;63009;52.584;5.932;2023-04-01T12:23:24;99887.97;;;10.84;100.00
74529;BME280;63009;52.584;5.932;2023-04-01T12:26:13;99900.44;;;10.70;100.00
74529;BME280;63009;52.584;5.932;2023-04-01T12:31:21;99912.75;;;10.59;100.00
74529;BME280;63009;52.584;5.932;2023-04-01T12:34:00;99911.63;;;10.50;100.00
74529;BME280;63009;52.584;5.932;2023-04-01T12:37:13;99918.09;;;10.46;100.00
74529;BME280;63009;52.584;5.932;2023-04-01T12:39:53;99919.03;;;10.45;100.00
74529;BME280;63009;52.584;5.932;2023-04-01T12:45:31;99927.69;;;10.47;100.00
74529;BME280;63009;52.584;5.932;2023-04-01T12:50:59;99934.81;;;10.34;100.00
74529;BME280;63009;52.584;5.932;2023-04-01T12:56:32;99958.69;;;10.32;100.00
74529;BME280;63009;52.584;5.932;2023-04-01T12:59:19;99960.06;;;10.25;100.00
74529;BME280;63009;52.584;5.932;2023-04-01T13:10:05;99981.22;;;10.00;100.00
74529;BME280;63009;52.584;5.932;2023-04-01T13:20:58;100006.44;;;10.04;100.00
74529;BME280;63009;52.584;5.932;2023-04-01T13:23:55;100006.66;;;10.01;100.00
74529;BME280;63009;52.584;5.932;2023-04-01T13:32:02;100030.22;;;10.04;100.00
74529;BME280;63009;52.584;5.932;2023-04-01T13:34:46;100031.06;;;10.04;100.00
74529;BME280;63009;52.584;5.932;2023-04-01T13:37:22;100041.84;;;10.01;100.00
74529;BME280;63009;52.584;5.932;2023-04-01T13:42:50;100031.69;;;9.95;100.00
74529;BME280;63009;52.584;5.932;2023-04-01T13:51:19;100058.19;;;10.06;100.00
74529;BME280;63009;52.584;5.932;2023-04-01T13:54:04;100055.44;;;9.95;100.00
74529;BME280;63009;52.584;5.932;2023-04-01T13:56:56;100062.50;;;9.95;100.00
74529;BME280;63009;52.584;5.932;2023-04-01T14:16:13;100091.38;;;9.58;100.00
74529;BME280;63009;52.584;5.932;2023-04-01T14:19:34;100094.78;;;9.60;100.00
74529;BME280;63009;52.584;5.932;2023-04-01T14:22:28;100100.78;;;9.62;100.00
74529;BME280;63009;52.584;5.932;2023-04-01T14:34:09;100099.53;;;9.41;100.00
74529;BME280;63009;52.584;5.932;2023-04-01T14:50:18;100149.59;;;9.28;100.00
74529;BME280;63009;52.584;5.932;2023-04-01T15:00:45;100170.69;;;9.28;100.00
74529;BME280;63009;52.584;5.932;2023-04-01T15:03:57;100188.22;;;9.29;100.00
74529;BME280;63009;52.584;5.932;2023-04-01T15:06:30;100191.88;;;9.27;100.00
74529;BME280;63009;52.584;5.932;2023-04-01T15:09:09;100185.53;;;9.16;100.00
74529;BME280;63009;52.584;5.932;2023-04-01T15:12:07;100193.78;;;9.10;100.00
74529;BME280;63009;52.584;5.932;2023-04-01T15:14:42;100211.19;;;9.13;100.00
74529;BME280;63009;52.584;5.932;2023-04-01T15:17:34;100216.56;;;9.11;100.00
74529;BME280;63009;52.584;5.932;2023-04-01T15:20:18;100220.34;;;9.07;100.00
74529;BME280;63009;52.584;5.932;2023-04-01T15:23:15;100226.16;;;9.12;100.00
74529;BME280;63009;52.584;5.932;2023-04-01T15:31:22;100221.66;;;9.00;100.00
74529;BME280;63009;52.584;5.932;2023-04-01T15:34:49;100247.47;;;9.09;100.00
74529;BME280;63009;52.584;5.932;2023-04-01T15:45:10;100276.44;;;8.95;100.00
74529;BME280;63009;52.584;5.932;2023-04-01T15:50:50;100281.81;;;8.79;100.00
74529;BME280;63009;52.584;5.932;2023-04-01T15:58:44;100303.06;;;8.76;100.00
74529;BME280;63009;52.584;5.932;2023-04-01T16:01:25;100315.88;;;8.82;100.00
74529;BME280;63009;52.584;5.932;2023-04-01T16:04:48;100315.00;;;8.82;100.00
74529;BME280;63009;52.584;5.932;2023-04-01T16:07:02;100319.81;;;8.75;100.00
74529;BME280;63009;52.584;5.932;2023-04-01T16:09:43;100327.22;;;8.69;100.00
74529;BME280;63009;52.584;5.932;2023-04-01T16:12:31;100343.69;;;8.72;100.00
74529;BME280;63009;52.584;5.932;2023-04-01T16:15:12;100346.16;;;8.75;100.00
74529;BME280;63009;52.584;5.932;2023-04-01T16:17:54;100354.31;;;8.71;100.00
74529;BME280;63009;52.584;5.932;2023-04-01T16:25:44;100355.34;;;8.68;100.00
74529;BME280;63009;52.584;5.932;2023-04-01T16:28:24;100378.72;;;8.74;100.00
74529;BME280;63009;52.584;5.932;2023-04-01T16:31:04;100378.41;;;8.65;100.00
74529;BME280;63009;52.584;5.932;2023-04-01T16:33:49;100392.16;;;8.54;100.00
74529;BME280;63009;52.584;5.932;2023-04-01T16:36:35;100388.19;;;8.31;100.00
74529;BME280;63009;52.584;5.932;2023-04-01T16:39:11;100396.72;;;8.36;100.00
74529;BME280;63009;52.584;5.932;2023-04-01T16:42:09;100399.81;;;8.27;100.00
74529;BME280;63009;52.584;5.932;2023-04-01T16:45:08;100410.16;;;8.30;100.00
74529;BME280;63009;52.584;5.932;2023-04-01T16:47:46;100421.56;;;8.30;100.00
74529;BME280;63009;52.584;5.932;2023-04-01T16:50:21;100415.38;;;8.31;100.00
74529;BME280;63009;52.584;5.932;2023-04-01T16:55:34;100435.81;;;8.26;100.00
74529;BME280;63009;52.584;5.932;2023-04-01T16:58:01;100437.59;;;8.26;100.00
74529;BME280;63009;52.584;5.932;2023-04-01T17:00:41;100428.09;;;8.23;100.00
74529;BME280;63009;52.584;5.932;2023-04-01T17:03:18;100454.16;;;8.28;100.00
74529;BME280;63009;52.584;5.932;2023-04-01T17:06:03;100463.84;;;8.27;100.00
74529;BME280;63009;52.584;5.932;2023-04-01T17:11:38;100465.53;;;8.28;100.00
74529;BME280;63009;52.584;5.932;2023-04-01T17:16:59;100481.59;;;8.24;100.00
74529;BME280;63009;52.584;5.932;2023-04-01T17:27:42;100492.59;;;7.99;100.00
74529;BME280;63009;52.584;5.932;2023-04-01T17:35:53;100536.59;;;8.13;100.00
74529;BME280;63009;52.584;5.932;2023-04-01T17:41:31;100546.00;;;8.01;100.00
74529;BME280;63009;52.584;5.932;2023-04-01T17:44:11;100550.56;;;7.97;100.00
74529;BME280;63009;52.584;5.932;2023-04-01T17:51:59;100570.72;;;7.81;100.00
74529;BME280;63009;52.584;5.932;2023-04-01T17:54:35;100572.03;;;7.72;100.00
74529;BME280;63009;52.584;5.932;2023-04-01T17:57:33;100584.88;;;7.61;100.00
74529;BME280;63009;52.584;5.932;2023-04-01T18:06:31;100604.44;;;7.56;100.00
74529;BME280;63009;52.584;5.932;2023-04-01T18:08:39;100612.47;;;7.53;100.00
74529;BME280;63009;52.584;5.932;2023-04-01T18:19:49;100651.66;;;7.40;100.00
74529;BME280;63009;52.584;5.932;2023-04-01T18:22:41;100655.06;;;7.42;100.00
74529;BME280;63009;52.584;5.932;2023-04-01T18:25:28;100659.94;;;7.32;100.00
74529;BME280;63009;52.584;5.932;2023-04-01T18:31:17;100685.50;;;7.29;100.00
74529;BME280;63009;52.584;5.932;2023-04-01T18:36:36;100686.06;;;7.17;100.00
74529;BME280;63009;52.584;5.932;2023-04-01T18:39:10;100687.38;;;7.08;100.00
74529;BME280;63009;52.584;5.932;2023-04-01T18:41:49;100705.63;;;7.11;100.00
74529;BME280;63009;52.584;5.932;2023-04-01T18:47:38;100714.72;;;7.04;100.00
74529;BME280;63009;52.584;5.932;2023-04-01T18:52:42;100713.44;;;6.94;100.00
74529;BME280;63009;52.584;5.932;2023-04-01T18:55:31;100738.56;;;6.99;100.00
74529;BME280;63009;52.584;5.932;2023-04-01T18:58:17;100740.69;;;6.91;100.00
74529;BME280;63009;52.584;5.932;2023-04-01T19:00:50;100749.06;;;6.99;100.00
74529;BME280;63009;52.584;5.932;2023-04-01T19:03:24;100756.50;;;6.90;100.00
74529;BME280;63009;52.584;5.932;2023-04-01T19:05:53;100756.50;;;6.90;100.00
74529;BME280;63009;52.584;5.932;2023-04-01T19:08:35;100771.56;;;6.86;100.00
74529;BME280;63009;52.584;5.932;2023-04-01T19:21:53;100783.72;;;6.48;100.00
74529;BME280;63009;52.584;5.932;2023-04-01T19:38:31;100850.16;;;6.50;100.00
74529;BME280;63009;52.584;5.932;2023-04-01T19:46:52;100860.88;;;6.44;100.00
74529;BME280;63009;52.584;5.932;2023-04-01T19:52:26;100876.63;;;6.44;100.00
74529;BME280;63009;52.584;5.932;2023-04-01T19:57:34;100885.56;;;6.40;100.00
74529;BME280;63009;52.584;5.932;2023-04-01T20:00:15;100890.81;;;6.40;100.00
74529;BME280;63009;52.584;5.932;2023-04-01T20:03:04;100892.53;;;6.41;100.00
74529;BME280;63009;52.584;5.932;2023-04-01T20:05:39;100897.28;;;6.31;100.00
74529;BME280;63009;52.584;5.932;2023-04-01T20:10:53;100916.69;;;6.27;100.00
74529;BME280;63009;52.584;5.932;2023-04-01T20:16:12;100919.56;;;6.21;100.00
74529;BME280;63009;52.584;5.932;2023-04-01T20:18:47;100922.34;;;6.16;100.00
74529;BME280;63009;52.584;5.932;2023-04-01T20:21:24;100937.19;;;6.17;100.00